UAL3911 PHNL-KLAX
Flight info
| Callsign | UAL3911 |
|---|---|
| Flight time | N/A |
| Altitude | 39000 |
| Route | MKK5 CODDY FITES R578 FICKY GOATZ2 |
| Aircraft | B772/H-VGDW/C |
Departure
| Time | N/A |
|---|---|
| Airport | Daniel K. Inouye International Airport (PHNL) |
Arrival
| Time | 2026-04-22 04:16 |
|---|---|
| Airport | Los Angeles International Airport (KLAX) |
| Time | Latitude | Longitude | Altitude | Speed | Heading |
|---|---|---|---|---|---|
| 2026-04-22 00:34 | 21.69998 | -151.14161 | 39044 ft | 459 kts | 58° |
| 2026-04-22 00:34 | 21.71440 | -151.11098 | 39043 ft | 460 kts | 57° |
| 2026-04-22 00:35 | 21.74336 | -151.04951 | 39043 ft | 460 kts | 58° |
| 2026-04-22 00:35 | 21.77207 | -150.98823 | 39043 ft | 461 kts | 58° |
| 2026-04-22 00:36 | 21.80086 | -150.92663 | 39044 ft | 461 kts | 58° |
| 2026-04-22 00:36 | 21.82966 | -150.86487 | 39043 ft | 461 kts | 58° |
| 2026-04-22 00:37 | 21.85843 | -150.80308 | 39044 ft | 461 kts | 58° |
| 2026-04-22 00:37 | 21.88721 | -150.74118 | 39044 ft | 462 kts | 58° |
| 2026-04-22 00:38 | 21.91576 | -150.67970 | 39044 ft | 462 kts | 58° |
| 2026-04-22 00:38 | 21.94447 | -150.61781 | 39044 ft | 461 kts | 58° |
| 2026-04-22 00:39 | 21.97318 | -150.55582 | 39044 ft | 461 kts | 58° |
| 2026-04-22 00:39 | 22.00184 | -150.49391 | 39044 ft | 461 kts | 58° |
| 2026-04-22 00:40 | 22.03023 | -150.43246 | 39043 ft | 459 kts | 58° |
| 2026-04-22 00:40 | 22.05870 | -150.37078 | 39044 ft | 459 kts | 58° |
| 2026-04-22 00:41 | 22.08719 | -150.30899 | 39044 ft | 460 kts | 58° |
| 2026-04-22 00:41 | 22.11547 | -150.24757 | 39044 ft | 460 kts | 58° |
| 2026-04-22 00:42 | 22.14390 | -150.18576 | 39044 ft | 461 kts | 58° |
| 2026-04-22 00:42 | 22.17239 | -150.12373 | 39044 ft | 461 kts | 58° |
| 2026-04-22 00:43 | 22.19620 | -150.07183 | 39044 ft | 461 kts | 58° |
| 2026-04-22 00:43 | 22.22448 | -150.01012 | 39044 ft | 461 kts | 58° |
| 2026-04-22 00:44 | 22.25285 | -149.94814 | 39039 ft | 461 kts | 58° |
| 2026-04-22 00:44 | 22.28114 | -149.88627 | 39038 ft | 461 kts | 59° |
| 2026-04-22 00:45 | 22.30948 | -149.82421 | 39039 ft | 461 kts | 59° |
| 2026-04-22 00:45 | 22.33786 | -149.76196 | 39038 ft | 461 kts | 59° |
| 2026-04-22 00:46 | 22.36621 | -149.69974 | 39033 ft | 462 kts | 59° |
| 2026-04-22 00:46 | 22.39460 | -149.63732 | 39033 ft | 462 kts | 59° |
| 2026-04-22 00:47 | 22.42277 | -149.57533 | 39033 ft | 463 kts | 59° |
| 2026-04-22 00:47 | 22.45114 | -149.51282 | 39033 ft | 463 kts | 59° |
| 2026-04-22 00:48 | 22.47952 | -149.45019 | 39033 ft | 464 kts | 59° |
| 2026-04-22 00:48 | 22.50793 | -149.38742 | 39032 ft | 464 kts | 59° |
| 2026-04-22 00:49 | 22.53632 | -149.32462 | 39032 ft | 465 kts | 59° |
| 2026-04-22 00:49 | 22.56475 | -149.26164 | 39032 ft | 466 kts | 59° |
| 2026-04-22 00:50 | 22.59321 | -149.19853 | 39032 ft | 467 kts | 59° |
| 2026-04-22 00:50 | 22.62151 | -149.13568 | 39032 ft | 468 kts | 60° |
| 2026-04-22 00:51 | 22.65000 | -149.07236 | 39032 ft | 468 kts | 60° |
| 2026-04-22 00:51 | 22.67853 | -149.00884 | 39032 ft | 469 kts | 60° |
| 2026-04-22 00:52 | 22.70707 | -148.94521 | 39031 ft | 470 kts | 60° |
| 2026-04-22 00:52 | 22.73561 | -148.88150 | 39031 ft | 471 kts | 60° |
| 2026-04-22 00:53 | 22.76421 | -148.81759 | 39032 ft | 471 kts | 60° |
| 2026-04-22 00:53 | 22.79280 | -148.75361 | 39031 ft | 472 kts | 60° |
| 2026-04-22 00:54 | 22.82139 | -148.68954 | 39031 ft | 472 kts | 60° |
| 2026-04-22 00:54 | 22.84980 | -148.62581 | 39031 ft | 473 kts | 60° |
| 2026-04-22 00:55 | 22.87837 | -148.56161 | 39031 ft | 473 kts | 60° |
| 2026-04-22 00:55 | 22.92126 | -148.46508 | 39030 ft | 473 kts | 61° |
| 2026-04-22 00:56 | 22.94981 | -148.40071 | 39030 ft | 473 kts | 61° |
| 2026-04-22 00:56 | 22.97840 | -148.33620 | 39028 ft | 473 kts | 61° |
| 2026-04-22 00:57 | 23.00688 | -148.27182 | 39030 ft | 473 kts | 61° |
| 2026-04-22 00:57 | 23.03516 | -148.20781 | 39030 ft | 473 kts | 61° |
| 2026-04-22 00:58 | 23.06357 | -148.14343 | 39030 ft | 473 kts | 61° |
| 2026-04-22 00:58 | 23.09196 | -148.07901 | 39030 ft | 472 kts | 61° |
| 2026-04-22 00:59 | 23.12028 | -148.01465 | 39030 ft | 472 kts | 61° |
| 2026-04-22 00:59 | 23.14863 | -147.95018 | 39029 ft | 475 kts | 62° |
| 2026-04-22 01:00 | 23.17725 | -147.88494 | 39030 ft | 480 kts | 62° |
| 2026-04-22 01:00 | 23.20589 | -147.81959 | 39029 ft | 481 kts | 62° |
| 2026-04-22 01:01 | 23.23463 | -147.75391 | 39029 ft | 480 kts | 62° |
| 2026-04-22 01:01 | 23.26328 | -147.68836 | 39029 ft | 479 kts | 62° |
| 2026-04-22 01:02 | 23.29192 | -147.62276 | 39029 ft | 480 kts | 62° |
| 2026-04-22 01:02 | 23.32051 | -147.55715 | 39029 ft | 480 kts | 62° |
| 2026-04-22 01:03 | 23.34890 | -147.49193 | 39029 ft | 481 kts | 62° |
| 2026-04-22 01:03 | 23.37751 | -147.42611 | 39028 ft | 481 kts | 62° |
| 2026-04-22 01:04 | 23.40614 | -147.36015 | 39028 ft | 482 kts | 63° |
| 2026-04-22 01:04 | 23.43475 | -147.29414 | 39028 ft | 483 kts | 63° |
| 2026-04-22 01:05 | 23.46347 | -147.22779 | 39028 ft | 484 kts | 63° |
| 2026-04-22 01:05 | 23.49219 | -147.16135 | 39028 ft | 485 kts | 63° |
| 2026-04-22 01:06 | 23.52098 | -147.09466 | 39028 ft | 487 kts | 63° |
| 2026-04-22 01:06 | 23.54961 | -147.02822 | 39028 ft | 488 kts | 63° |
| 2026-04-22 01:07 | 23.57853 | -146.96102 | 39028 ft | 490 kts | 64° |
| 2026-04-22 01:07 | 23.60744 | -146.89376 | 39028 ft | 491 kts | 64° |
| 2026-04-22 01:08 | 23.63644 | -146.82618 | 39027 ft | 492 kts | 64° |
| 2026-04-22 01:08 | 23.66547 | -146.75845 | 39028 ft | 493 kts | 64° |
| 2026-04-22 01:09 | 23.69457 | -146.69044 | 39027 ft | 495 kts | 64° |
| 2026-04-22 01:09 | 23.72367 | -146.62231 | 39027 ft | 496 kts | 64° |
| 2026-04-22 01:10 | 23.75282 | -146.55400 | 39027 ft | 496 kts | 64° |
| 2026-04-22 01:10 | 23.78178 | -146.48601 | 39027 ft | 497 kts | 65° |
| 2026-04-22 01:11 | 23.81093 | -146.41748 | 39026 ft | 498 kts | 65° |
| 2026-04-22 01:11 | 23.84005 | -146.34892 | 39026 ft | 498 kts | 65° |
| 2026-04-22 01:12 | 23.86921 | -146.28019 | 39027 ft | 498 kts | 65° |
| 2026-04-22 01:12 | 23.89836 | -146.21135 | 39026 ft | 499 kts | 65° |
| 2026-04-22 01:13 | 23.92751 | -146.14239 | 39026 ft | 499 kts | 65° |
| 2026-04-22 01:13 | 23.95638 | -146.07403 | 39025 ft | 499 kts | 65° |
| 2026-04-22 01:14 | 23.98542 | -146.00513 | 39025 ft | 499 kts | 65° |
| 2026-04-22 01:14 | 24.01443 | -145.93625 | 39025 ft | 499 kts | 65° |
| 2026-04-22 01:15 | 24.04342 | -145.86726 | 39024 ft | 499 kts | 65° |
| 2026-04-22 01:15 | 24.07235 | -145.79833 | 39025 ft | 499 kts | 65° |
| 2026-04-22 01:16 | 24.10125 | -145.72933 | 39024 ft | 499 kts | 65° |
| 2026-04-22 01:16 | 24.13016 | -145.66023 | 39024 ft | 499 kts | 65° |
| 2026-04-22 01:17 | 24.15906 | -145.59105 | 39024 ft | 500 kts | 65° |
| 2026-04-22 01:17 | 24.18786 | -145.52201 | 39024 ft | 501 kts | 66° |
| 2026-04-22 01:18 | 24.21690 | -145.45227 | 39024 ft | 506 kts | 66° |
| 2026-04-22 01:18 | 24.24623 | -145.38175 | 39024 ft | 511 kts | 66° |
| 2026-04-22 01:19 | 24.27583 | -145.31046 | 39024 ft | 516 kts | 66° |
| 2026-04-22 01:19 | 24.30582 | -145.23863 | 39024 ft | 520 kts | 66° |
| 2026-04-22 01:20 | 24.33570 | -145.16627 | 39023 ft | 522 kts | 66° |
| 2026-04-22 01:20 | 24.36567 | -145.09353 | 39021 ft | 524 kts | 67° |
| 2026-04-22 01:21 | 24.39549 | -145.02108 | 39023 ft | 525 kts | 67° |
| 2026-04-22 01:21 | 24.42563 | -144.94787 | 39023 ft | 527 kts | 67° |
| 2026-04-22 01:22 | 24.45588 | -144.87429 | 39023 ft | 529 kts | 68° |
| 2026-04-22 01:22 | 24.48614 | -144.80046 | 39023 ft | 531 kts | 68° |
| 2026-04-22 01:23 | 24.51642 | -144.72638 | 39024 ft | 532 kts | 68° |
| 2026-04-22 01:23 | 24.54654 | -144.65256 | 39024 ft | 534 kts | 68° |
| 2026-04-22 01:24 | 24.57720 | -144.57819 | 39023 ft | 535 kts | 68° |
| 2026-04-22 01:24 | 24.60790 | -144.50348 | 39023 ft | 536 kts | 68° |
| 2026-04-22 01:25 | 24.63851 | -144.42856 | 39023 ft | 537 kts | 68° |
| 2026-04-22 01:25 | 24.66914 | -144.35344 | 39026 ft | 538 kts | 69° |
| 2026-04-22 01:26 | 24.69963 | -144.27839 | 39023 ft | 538 kts | 69° |
| 2026-04-22 01:26 | 24.72995 | -144.20367 | 39023 ft | 538 kts | 69° |
| 2026-04-22 01:27 | 24.76061 | -144.12799 | 39022 ft | 538 kts | 69° |
| 2026-04-22 01:27 | 24.79079 | -144.05334 | 39022 ft | 537 kts | 69° |
| 2026-04-22 01:28 | 24.82117 | -143.97811 | 39021 ft | 537 kts | 69° |
| 2026-04-22 01:28 | 24.85165 | -143.90248 | 39022 ft | 542 kts | 70° |
| 2026-04-22 01:29 | 24.88233 | -143.82620 | 39028 ft | 545 kts | 70° |
| 2026-04-22 01:29 | 24.91303 | -143.74972 | 39044 ft | 545 kts | 70° |
| 2026-04-22 01:30 | 24.94346 | -143.67382 | 39045 ft | 544 kts | 70° |
| 2026-04-22 01:30 | 24.97402 | -143.59744 | 39045 ft | 544 kts | 70° |
| 2026-04-22 01:31 | 25.00453 | -143.52106 | 39045 ft | 544 kts | 70° |
| 2026-04-22 01:31 | 25.03495 | -143.44475 | 39045 ft | 543 kts | 70° |
| 2026-04-22 01:32 | 25.06024 | -143.38122 | 39045 ft | 544 kts | 70° |
| 2026-04-22 01:32 | 25.09563 | -143.29219 | 39046 ft | 545 kts | 70° |
| 2026-04-22 01:33 | 25.12602 | -143.21556 | 39045 ft | 546 kts | 70° |
| 2026-04-22 01:33 | 25.15129 | -143.15172 | 39045 ft | 546 kts | 70° |
| 2026-04-22 01:34 | 25.18171 | -143.07476 | 39045 ft | 547 kts | 70° |
| 2026-04-22 01:34 | 25.21214 | -142.99766 | 39045 ft | 548 kts | 71° |
| 2026-04-22 01:35 | 25.24263 | -142.92024 | 39046 ft | 549 kts | 71° |
| 2026-04-22 01:35 | 25.27310 | -142.84273 | 39045 ft | 551 kts | 71° |
| 2026-04-22 01:36 | 25.30364 | -142.76491 | 39045 ft | 552 kts | 71° |
| 2026-04-22 01:36 | 25.33418 | -142.68694 | 39045 ft | 554 kts | 71° |
| 2026-04-22 01:37 | 25.36481 | -142.60862 | 39045 ft | 555 kts | 71° |
| 2026-04-22 01:37 | 25.39526 | -142.53056 | 39051 ft | 557 kts | 71° |
| 2026-04-22 01:38 | 25.42601 | -142.45163 | 39053 ft | 558 kts | 72° |
| 2026-04-22 01:38 | 25.45673 | -142.37261 | 39053 ft | 560 kts | 72° |
| 2026-04-22 01:39 | 25.48750 | -142.29334 | 39052 ft | 561 kts | 72° |
| 2026-04-22 01:39 | 25.51830 | -142.21381 | 39053 ft | 563 kts | 72° |
| 2026-04-22 01:40 | 25.54898 | -142.13444 | 39053 ft | 564 kts | 72° |
| 2026-04-22 01:40 | 25.57987 | -142.05438 | 39053 ft | 565 kts | 72° |
| 2026-04-22 01:41 | 25.61073 | -141.97425 | 39053 ft | 566 kts | 72° |
| 2026-04-22 01:41 | 25.64167 | -141.89376 | 39053 ft | 568 kts | 72° |
| 2026-04-22 01:42 | 25.67241 | -141.81363 | 39053 ft | 568 kts | 72° |
| 2026-04-22 01:42 | 25.70331 | -141.73290 | 39053 ft | 567 kts | 72° |
| 2026-04-22 01:43 | 25.73391 | -141.65283 | 39053 ft | 567 kts | 72° |
| 2026-04-22 01:43 | 25.76471 | -141.57208 | 39056 ft | 567 kts | 72° |
| 2026-04-22 01:44 | 25.79542 | -141.49138 | 39056 ft | 567 kts | 73° |
| 2026-04-22 01:44 | 25.82610 | -141.41061 | 39056 ft | 567 kts | 72° |
| 2026-04-22 01:45 | 25.85655 | -141.33029 | 39056 ft | 568 kts | 72° |
| 2026-04-22 01:45 | 25.88714 | -141.24945 | 39056 ft | 568 kts | 72° |
| 2026-04-22 01:46 | 25.91771 | -141.16851 | 39056 ft | 568 kts | 73° |
| 2026-04-22 01:46 | 25.94822 | -141.08754 | 39056 ft | 569 kts | 72° |
| 2026-04-22 01:47 | 25.97877 | -141.00633 | 39056 ft | 569 kts | 72° |
| 2026-04-22 01:47 | 26.00928 | -140.92503 | 39057 ft | 569 kts | 72° |
| 2026-04-22 01:48 | 26.03965 | -140.84396 | 39056 ft | 567 kts | 72° |
| 2026-04-22 01:48 | 26.06980 | -140.76332 | 39056 ft | 568 kts | 72° |
| 2026-04-22 01:49 | 26.10014 | -140.68201 | 39057 ft | 569 kts | 72° |
| 2026-04-22 01:49 | 26.13050 | -140.60048 | 39056 ft | 570 kts | 72° |
| 2026-04-22 01:50 | 26.16086 | -140.51879 | 39057 ft | 571 kts | 72° |
| 2026-04-22 01:50 | 26.19117 | -140.43706 | 39058 ft | 571 kts | 72° |
| 2026-04-22 01:51 | 26.22145 | -140.35524 | 39058 ft | 572 kts | 72° |
| 2026-04-22 01:51 | 26.25173 | -140.27325 | 39058 ft | 572 kts | 72° |
| 2026-04-22 01:52 | 26.28179 | -140.19169 | 39059 ft | 572 kts | 73° |
| 2026-04-22 01:52 | 26.31205 | -140.10942 | 39059 ft | 573 kts | 73° |
| 2026-04-22 01:53 | 26.34226 | -140.02712 | 39053 ft | 573 kts | 73° |
| 2026-04-22 01:53 | 26.37219 | -139.94540 | 39053 ft | 574 kts | 73° |
| 2026-04-22 01:54 | 26.40237 | -139.86284 | 39053 ft | 574 kts | 73° |
| 2026-04-22 01:54 | 26.43248 | -139.78028 | 39053 ft | 574 kts | 72° |
| 2026-04-22 01:55 | 26.46255 | -139.69769 | 39064 ft | 574 kts | 72° |
| 2026-04-22 01:55 | 26.49261 | -139.61493 | 39065 ft | 575 kts | 72° |
| 2026-04-22 01:56 | 26.52242 | -139.53267 | 39065 ft | 575 kts | 72° |
| 2026-04-22 01:56 | 26.55244 | -139.44971 | 39066 ft | 576 kts | 72° |
| 2026-04-22 01:57 | 26.58229 | -139.36698 | 39066 ft | 576 kts | 72° |
| 2026-04-22 01:57 | 26.61229 | -139.28369 | 39066 ft | 577 kts | 72° |
| 2026-04-22 01:58 | 26.64222 | -139.20041 | 39066 ft | 577 kts | 72° |
| 2026-04-22 01:58 | 26.67217 | -139.11689 | 39066 ft | 578 kts | 72° |
| 2026-04-22 01:59 | 26.70187 | -139.03390 | 39066 ft | 578 kts | 72° |
| 2026-04-22 01:59 | 26.73170 | -138.95037 | 39067 ft | 579 kts | 72° |
| 2026-04-22 02:00 | 26.76152 | -138.86667 | 39067 ft | 579 kts | 72° |
| 2026-04-22 02:00 | 26.79130 | -138.78291 | 39067 ft | 579 kts | 72° |
| 2026-04-22 02:01 | 26.82107 | -138.69899 | 39067 ft | 579 kts | 72° |
| 2026-04-22 02:01 | 26.85077 | -138.61511 | 39067 ft | 580 kts | 72° |
| 2026-04-22 02:02 | 26.88047 | -138.53112 | 39066 ft | 580 kts | 71° |
| 2026-04-22 02:02 | 26.91010 | -138.44765 | 39066 ft | 581 kts | 71° |
| 2026-04-22 02:03 | 26.93969 | -138.36322 | 39066 ft | 581 kts | 72° |
| 2026-04-22 02:03 | 26.96920 | -138.27882 | 39070 ft | 581 kts | 72° |
| 2026-04-22 02:04 | 27.01346 | -138.15202 | 39069 ft | 582 kts | 72° |
| 2026-04-22 02:05 | 27.04280 | -138.06739 | 39070 ft | 582 kts | 72° |
| 2026-04-22 02:05 | 27.07190 | -137.98309 | 39070 ft | 583 kts | 72° |
| 2026-04-22 02:06 | 27.10121 | -137.89795 | 39070 ft | 585 kts | 71° |
| 2026-04-22 02:06 | 27.13067 | -137.81271 | 39071 ft | 586 kts | 71° |
| 2026-04-22 02:07 | 27.16046 | -137.72729 | 39069 ft | 586 kts | 71° |
| 2026-04-22 02:07 | 27.18994 | -137.64191 | 39071 ft | 586 kts | 71° |
| 2026-04-22 02:08 | 27.21915 | -137.55689 | 39071 ft | 586 kts | 71° |
| 2026-04-22 02:08 | 27.24844 | -137.47141 | 39071 ft | 586 kts | 71° |
| 2026-04-22 02:09 | 27.27770 | -137.38576 | 39071 ft | 587 kts | 71° |
| 2026-04-22 02:09 | 27.30694 | -137.30000 | 39071 ft | 587 kts | 71° |
| 2026-04-22 02:10 | 27.33608 | -137.21433 | 39071 ft | 587 kts | 71° |
| 2026-04-22 02:10 | 27.36520 | -137.12850 | 39072 ft | 587 kts | 71° |
| 2026-04-22 02:11 | 27.39430 | -137.04255 | 39072 ft | 587 kts | 71° |
| 2026-04-22 02:11 | 27.42316 | -136.95711 | 39072 ft | 587 kts | 71° |
| 2026-04-22 02:12 | 27.45212 | -136.87118 | 39072 ft | 586 kts | 71° |
| 2026-04-22 02:12 | 27.48100 | -136.78524 | 39072 ft | 587 kts | 71° |
| 2026-04-22 02:13 | 27.50986 | -136.69922 | 39072 ft | 587 kts | 71° |
| 2026-04-22 02:13 | 27.53869 | -136.61305 | 39073 ft | 587 kts | 71° |
| 2026-04-22 02:14 | 27.56748 | -136.52678 | 39072 ft | 588 kts | 71° |
| 2026-04-22 02:14 | 27.59624 | -136.44041 | 39072 ft | 588 kts | 70° |
| 2026-04-22 02:15 | 27.62495 | -136.35398 | 39073 ft | 588 kts | 70° |
| 2026-04-22 02:15 | 27.65361 | -136.26750 | 39073 ft | 588 kts | 70° |
| 2026-04-22 02:16 | 27.68206 | -136.18145 | 39073 ft | 588 kts | 70° |
| 2026-04-22 02:16 | 27.71061 | -136.09491 | 39073 ft | 589 kts | 70° |
| 2026-04-22 02:17 | 27.73918 | -136.00805 | 39073 ft | 589 kts | 70° |
| 2026-04-22 02:17 | 27.76772 | -135.92113 | 39221 ft | 589 kts | 70° |
| 2026-04-22 02:17 | 27.78190 | -135.87785 | 39547 ft | 586 kts | 70° |
| 2026-04-22 02:18 | 27.79600 | -135.83476 | 39762 ft | 585 kts | 70° |
| 2026-04-22 02:18 | 27.81006 | -135.79174 | 39913 ft | 585 kts | 70° |
| 2026-04-22 02:18 | 27.82417 | -135.74853 | 40077 ft | 584 kts | 70° |
| 2026-04-22 02:18 | 27.83817 | -135.70560 | 40363 ft | 581 kts | 71° |
| 2026-04-22 02:19 | 27.85209 | -135.66283 | 40528 ft | 580 kts | 71° |
| 2026-04-22 02:19 | 27.86602 | -135.62002 | 40676 ft | 580 kts | 71° |
| 2026-04-22 02:19 | 27.87991 | -135.57726 | 40844 ft | 579 kts | 71° |
| 2026-04-22 02:19 | 27.89376 | -135.53457 | 41045 ft | 577 kts | 71° |
| 2026-04-22 02:20 | 27.90758 | -135.49193 | 41074 ft | 578 kts | 71° |
| 2026-04-22 02:20 | 27.93523 | -135.40647 | 41075 ft | 578 kts | 71° |
| 2026-04-22 02:21 | 27.95811 | -135.33560 | 41077 ft | 577 kts | 71° |
| 2026-04-22 02:21 | 27.98559 | -135.25027 | 41082 ft | 577 kts | 71° |
| 2026-04-22 02:22 | 28.01744 | -135.15111 | 41082 ft | 578 kts | 71° |
| 2026-04-22 02:22 | 28.04041 | -135.07945 | 41091 ft | 578 kts | 71° |
| 2026-04-22 02:23 | 28.06762 | -134.99433 | 41086 ft | 578 kts | 71° |
| 2026-04-22 02:23 | 28.09496 | -134.90861 | 41083 ft | 578 kts | 71° |
| 2026-04-22 02:24 | 28.12224 | -134.82287 | 41083 ft | 578 kts | 71° |
| 2026-04-22 02:24 | 28.14955 | -134.73685 | 41084 ft | 579 kts | 71° |
| 2026-04-22 02:25 | 28.17675 | -134.65091 | 41084 ft | 579 kts | 71° |
| 2026-04-22 02:25 | 28.20387 | -134.56505 | 41083 ft | 579 kts | 71° |
| 2026-04-22 02:26 | 28.23080 | -134.47955 | 41084 ft | 579 kts | 71° |
| 2026-04-22 02:26 | 28.25787 | -134.39344 | 41084 ft | 579 kts | 71° |
| 2026-04-22 02:27 | 28.28482 | -134.30745 | 41084 ft | 579 kts | 71° |
| 2026-04-22 02:27 | 28.31175 | -134.22134 | 41084 ft | 579 kts | 71° |
| 2026-04-22 02:28 | 28.33863 | -134.13517 | 41084 ft | 579 kts | 71° |
| 2026-04-22 02:28 | 28.36544 | -134.04899 | 41084 ft | 579 kts | 71° |
| 2026-04-22 02:29 | 28.39203 | -133.96331 | 41084 ft | 579 kts | 71° |
| 2026-04-22 02:29 | 28.41876 | -133.87694 | 41085 ft | 579 kts | 71° |
| 2026-04-22 02:30 | 28.44547 | -133.79043 | 41084 ft | 580 kts | 71° |
| 2026-04-22 02:30 | 28.47213 | -133.70389 | 41084 ft | 580 kts | 71° |
| 2026-04-22 02:31 | 28.49876 | -133.61716 | 41085 ft | 580 kts | 71° |
| 2026-04-22 02:31 | 28.52530 | -133.53056 | 41085 ft | 580 kts | 71° |
| 2026-04-22 02:32 | 28.55177 | -133.44394 | 41085 ft | 580 kts | 71° |
| 2026-04-22 02:32 | 28.57808 | -133.35764 | 41085 ft | 581 kts | 71° |
| 2026-04-22 02:33 | 28.60449 | -133.27077 | 41085 ft | 581 kts | 71° |
| 2026-04-22 02:33 | 28.63088 | -133.18375 | 41085 ft | 581 kts | 71° |
| 2026-04-22 02:34 | 28.65720 | -133.09669 | 41085 ft | 581 kts | 71° |
| 2026-04-22 02:34 | 28.68349 | -133.00957 | 41084 ft | 581 kts | 71° |
| 2026-04-22 02:35 | 28.70972 | -132.92237 | 41084 ft | 582 kts | 71° |
| 2026-04-22 02:35 | 28.73590 | -132.83515 | 41085 ft | 582 kts | 71° |
| 2026-04-22 02:36 | 28.76202 | -132.74787 | 41085 ft | 582 kts | 71° |
| 2026-04-22 02:36 | 28.78810 | -132.66047 | 41085 ft | 583 kts | 71° |
| 2026-04-22 02:37 | 28.81403 | -132.57337 | 41085 ft | 583 kts | 71° |
| 2026-04-22 02:37 | 28.84002 | -132.48584 | 41085 ft | 583 kts | 71° |
| 2026-04-22 02:38 | 28.86596 | -132.39823 | 41085 ft | 583 kts | 71° |
| 2026-04-22 02:38 | 28.89182 | -132.31068 | 41085 ft | 583 kts | 71° |
| 2026-04-22 02:39 | 28.91766 | -132.22294 | 41085 ft | 584 kts | 71° |
| 2026-04-22 02:39 | 28.94349 | -132.13500 | 41085 ft | 584 kts | 71° |
| 2026-04-22 02:40 | 28.96925 | -132.04706 | 41088 ft | 584 kts | 71° |
| 2026-04-22 02:40 | 28.99497 | -131.95900 | 41088 ft | 584 kts | 71° |
| 2026-04-22 02:41 | 29.02066 | -131.87085 | 41088 ft | 584 kts | 70° |
| 2026-04-22 02:41 | 29.04614 | -131.78314 | 41085 ft | 585 kts | 70° |
| 2026-04-22 02:42 | 29.07157 | -131.69538 | 41084 ft | 584 kts | 71° |
| 2026-04-22 02:42 | 29.09706 | -131.60719 | 41084 ft | 585 kts | 71° |
| 2026-04-22 02:43 | 29.12252 | -131.51880 | 41084 ft | 585 kts | 71° |
| 2026-04-22 02:43 | 29.14793 | -131.43039 | 41084 ft | 585 kts | 71° |
| 2026-04-22 02:44 | 29.17322 | -131.34266 | 41084 ft | 584 kts | 70° |
| 2026-04-22 02:44 | 29.19858 | -131.25429 | 41084 ft | 584 kts | 71° |
| 2026-04-22 02:45 | 29.22372 | -131.16564 | 41084 ft | 585 kts | 71° |
| 2026-04-22 02:45 | 29.24890 | -131.07670 | 41084 ft | 586 kts | 71° |
| 2026-04-22 02:46 | 29.27401 | -130.98791 | 41085 ft | 585 kts | 71° |
| 2026-04-22 02:46 | 29.29901 | -130.89907 | 41085 ft | 585 kts | 71° |
| 2026-04-22 02:47 | 29.32376 | -130.81062 | 41084 ft | 585 kts | 71° |
| 2026-04-22 02:47 | 29.34858 | -130.72159 | 41085 ft | 585 kts | 71° |
| 2026-04-22 02:48 | 29.37336 | -130.63256 | 41085 ft | 586 kts | 70° |
| 2026-04-22 02:48 | 29.39861 | -130.54361 | 41085 ft | 586 kts | 70° |
| 2026-04-22 02:49 | 29.42341 | -130.45512 | 41085 ft | 586 kts | 71° |
| 2026-04-22 02:49 | 29.44819 | -130.36606 | 41085 ft | 586 kts | 71° |
| 2026-04-22 02:50 | 29.47292 | -130.27679 | 41085 ft | 587 kts | 71° |
| 2026-04-22 02:50 | 29.49761 | -130.18736 | 41098 ft | 587 kts | 71° |
| 2026-04-22 02:51 | 29.52222 | -130.09798 | 41104 ft | 587 kts | 71° |
| 2026-04-22 02:51 | 29.54674 | -130.00866 | 41104 ft | 587 kts | 71° |
| 2026-04-22 02:52 | 29.57131 | -129.91888 | 41104 ft | 588 kts | 71° |
| 2026-04-22 02:52 | 29.59562 | -129.82983 | 41105 ft | 588 kts | 71° |
| 2026-04-22 02:53 | 29.62003 | -129.74011 | 41105 ft | 588 kts | 71° |
| 2026-04-22 02:53 | 29.64439 | -129.65030 | 41110 ft | 588 kts | 71° |
| 2026-04-22 02:54 | 29.66867 | -129.56054 | 41112 ft | 588 kts | 71° |
| 2026-04-22 02:54 | 29.69287 | -129.47080 | 41112 ft | 587 kts | 71° |
| 2026-04-22 02:55 | 29.71702 | -129.38100 | 41112 ft | 587 kts | 71° |
| 2026-04-22 02:55 | 29.74109 | -129.29120 | 41112 ft | 587 kts | 71° |
| 2026-04-22 02:56 | 29.76512 | -129.20129 | 41112 ft | 588 kts | 71° |
| 2026-04-22 02:56 | 29.78911 | -129.11128 | 41113 ft | 588 kts | 71° |
| 2026-04-22 02:57 | 29.81291 | -129.02167 | 41113 ft | 589 kts | 71° |
| 2026-04-22 02:57 | 29.83681 | -128.93145 | 41113 ft | 589 kts | 71° |
| 2026-04-22 02:58 | 29.86067 | -128.84108 | 41113 ft | 589 kts | 71° |
| 2026-04-22 02:58 | 29.88446 | -128.75073 | 41113 ft | 589 kts | 71° |
| 2026-04-22 02:59 | 29.90823 | -128.66015 | 41113 ft | 590 kts | 71° |
| 2026-04-22 02:59 | 29.93192 | -128.56960 | 41113 ft | 590 kts | 71° |
| 2026-04-22 03:00 | 29.95560 | -128.47878 | 41114 ft | 591 kts | 71° |
| 2026-04-22 03:00 | 29.97920 | -128.38801 | 41114 ft | 591 kts | 71° |
| 2026-04-22 03:01 | 30.00274 | -128.29722 | 41114 ft | 591 kts | 71° |
| 2026-04-22 03:01 | 30.02624 | -128.20625 | 41115 ft | 591 kts | 71° |
| 2026-04-22 03:02 | 30.04970 | -128.11518 | 41104 ft | 592 kts | 71° |
| 2026-04-22 03:02 | 30.07294 | -128.02468 | 41097 ft | 591 kts | 71° |
| 2026-04-22 03:03 | 30.09629 | -127.93347 | 41097 ft | 591 kts | 71° |
| 2026-04-22 03:03 | 30.11957 | -127.84224 | 41098 ft | 592 kts | 71° |
| 2026-04-22 03:04 | 30.14276 | -127.75106 | 41098 ft | 592 kts | 71° |
| 2026-04-22 03:04 | 30.16201 | -127.67516 | 41096 ft | 592 kts | 71° |
| 2026-04-22 03:05 | 30.18899 | -127.56843 | 41096 ft | 591 kts | 71° |
| 2026-04-22 03:05 | 30.20807 | -127.49268 | 41096 ft | 591 kts | 71° |
| 2026-04-22 03:06 | 30.23098 | -127.40148 | 41097 ft | 590 kts | 71° |
| 2026-04-22 03:06 | 30.25382 | -127.31031 | 41096 ft | 590 kts | 71° |
| 2026-04-22 03:07 | 30.27658 | -127.21912 | 41097 ft | 589 kts | 71° |
| 2026-04-22 03:07 | 30.29914 | -127.12845 | 41097 ft | 589 kts | 71° |
| 2026-04-22 03:08 | 30.32178 | -127.03717 | 41098 ft | 590 kts | 71° |
| 2026-04-22 03:08 | 30.34434 | -126.94591 | 41098 ft | 589 kts | 71° |
| 2026-04-22 03:09 | 30.36682 | -126.85467 | 41098 ft | 589 kts | 71° |
| 2026-04-22 03:09 | 30.38926 | -126.76331 | 41099 ft | 589 kts | 71° |
| 2026-04-22 03:10 | 30.41163 | -126.67193 | 41100 ft | 589 kts | 71° |
| 2026-04-22 03:10 | 30.43395 | -126.58044 | 41100 ft | 589 kts | 71° |
| 2026-04-22 03:11 | 30.45616 | -126.48907 | 41100 ft | 589 kts | 71° |
| 2026-04-22 03:11 | 30.47825 | -126.39796 | 41101 ft | 590 kts | 72° |
| 2026-04-22 03:12 | 30.50036 | -126.30639 | 41102 ft | 590 kts | 72° |
| 2026-04-22 03:12 | 30.53341 | -126.16898 | 41102 ft | 590 kts | 72° |
| 2026-04-22 03:13 | 30.55540 | -126.07721 | 41103 ft | 590 kts | 72° |
| 2026-04-22 03:13 | 30.57716 | -125.98603 | 41104 ft | 589 kts | 72° |
| 2026-04-22 03:14 | 30.59901 | -125.89421 | 41104 ft | 589 kts | 71° |
| 2026-04-22 03:14 | 30.62062 | -125.80305 | 41105 ft | 588 kts | 72° |
| 2026-04-22 03:15 | 30.64227 | -125.71146 | 41103 ft | 588 kts | 72° |
| 2026-04-22 03:15 | 30.66386 | -125.61976 | 41103 ft | 588 kts | 72° |
| 2026-04-22 03:16 | 30.68537 | -125.52811 | 41103 ft | 588 kts | 72° |
| 2026-04-22 03:16 | 30.70671 | -125.43688 | 41104 ft | 588 kts | 72° |
| 2026-04-22 03:17 | 30.72808 | -125.34520 | 41104 ft | 588 kts | 72° |
| 2026-04-22 03:17 | 30.74940 | -125.25340 | 41105 ft | 587 kts | 72° |
| 2026-04-22 03:18 | 30.77065 | -125.16158 | 41105 ft | 587 kts | 72° |
| 2026-04-22 03:18 | 30.79183 | -125.06977 | 41106 ft | 587 kts | 72° |
| 2026-04-22 03:19 | 30.81291 | -124.97808 | 41106 ft | 587 kts | 72° |
| 2026-04-22 03:19 | 30.83396 | -124.88616 | 41107 ft | 587 kts | 72° |
| 2026-04-22 03:20 | 30.85483 | -124.79472 | 41107 ft | 587 kts | 72° |
| 2026-04-22 03:20 | 30.87575 | -124.70274 | 41108 ft | 587 kts | 72° |
| 2026-04-22 03:21 | 30.89658 | -124.61082 | 41108 ft | 587 kts | 72° |
| 2026-04-22 03:21 | 30.91737 | -124.51877 | 41108 ft | 587 kts | 72° |
| 2026-04-22 03:22 | 30.93796 | -124.42730 | 41109 ft | 587 kts | 72° |
| 2026-04-22 03:22 | 30.95859 | -124.33527 | 41106 ft | 587 kts | 72° |
| 2026-04-22 03:23 | 30.97913 | -124.24332 | 41107 ft | 586 kts | 72° |
| 2026-04-22 03:23 | 30.99964 | -124.15121 | 41107 ft | 586 kts | 72° |
| 2026-04-22 03:24 | 31.02004 | -124.05924 | 41106 ft | 586 kts | 72° |
| 2026-04-22 03:24 | 31.04033 | -123.96743 | 41106 ft | 585 kts | 73° |
| 2026-04-22 03:25 | 31.06075 | -123.87555 | 41115 ft | 584 kts | 72° |
| 2026-04-22 03:25 | 31.08082 | -123.78445 | 41117 ft | 584 kts | 73° |
| 2026-04-22 03:26 | 31.10081 | -123.69242 | 41119 ft | 584 kts | 73° |
| 2026-04-22 03:26 | 31.12074 | -123.60046 | 41120 ft | 584 kts | 73° |
| 2026-04-22 03:27 | 31.14047 | -123.50845 | 41120 ft | 584 kts | 74° |
| 2026-04-22 03:27 | 31.15918 | -123.41634 | 41121 ft | 584 kts | 74° |
| 2026-04-22 03:28 | 31.17790 | -123.32395 | 41122 ft | 584 kts | 74° |
| 2026-04-22 03:28 | 31.19655 | -123.23167 | 41122 ft | 584 kts | 74° |
| 2026-04-22 03:29 | 31.21521 | -123.13939 | 41119 ft | 583 kts | 73° |
| 2026-04-22 03:29 | 31.23419 | -123.04777 | 41120 ft | 583 kts | 73° |
| 2026-04-22 03:30 | 31.25295 | -122.95549 | 41121 ft | 583 kts | 74° |
| 2026-04-22 03:30 | 31.27152 | -122.86332 | 41122 ft | 582 kts | 74° |
| 2026-04-22 03:31 | 31.29001 | -122.77105 | 41123 ft | 582 kts | 74° |
| 2026-04-22 03:31 | 31.30840 | -122.67890 | 41124 ft | 581 kts | 74° |
| 2026-04-22 03:32 | 31.32660 | -122.58730 | 41125 ft | 581 kts | 74° |
| 2026-04-22 03:32 | 31.34483 | -122.49522 | 41126 ft | 580 kts | 74° |
| 2026-04-22 03:33 | 31.36299 | -122.40307 | 41132 ft | 580 kts | 74° |
| 2026-04-22 03:33 | 31.38106 | -122.31105 | 41133 ft | 580 kts | 74° |
| 2026-04-22 03:34 | 31.39895 | -122.21958 | 41132 ft | 579 kts | 74° |
| 2026-04-22 03:34 | 31.41686 | -122.12766 | 41132 ft | 578 kts | 74° |
| 2026-04-22 03:35 | 31.43468 | -122.03580 | 41131 ft | 578 kts | 74° |
| 2026-04-22 03:35 | 31.45242 | -121.94398 | 41134 ft | 578 kts | 75° |
| 2026-04-22 03:36 | 31.47010 | -121.85210 | 41134 ft | 578 kts | 75° |
| 2026-04-22 03:36 | 31.48775 | -121.76005 | 41136 ft | 578 kts | 75° |
| 2026-04-22 03:37 | 31.50560 | -121.66806 | 41137 ft | 578 kts | 75° |
| 2026-04-22 03:37 | 31.52298 | -121.57611 | 41137 ft | 578 kts | 75° |
| 2026-04-22 03:38 | 31.54018 | -121.48454 | 41137 ft | 578 kts | 75° |
| 2026-04-22 03:38 | 31.55827 | -121.39262 | 41137 ft | 577 kts | 71° |
| 2026-04-22 03:39 | 31.58508 | -121.30400 | 41139 ft | 575 kts | 64° |
| 2026-04-22 03:39 | 31.61665 | -121.21795 | 41129 ft | 573 kts | 63° |
| 2026-04-22 03:40 | 31.64734 | -121.13164 | 41129 ft | 572 kts | 64° |
| 2026-04-22 03:40 | 31.67719 | -121.04498 | 41130 ft | 573 kts | 64° |
| 2026-04-22 03:41 | 31.70728 | -120.95829 | 41131 ft | 573 kts | 64° |
| 2026-04-22 03:41 | 31.73711 | -120.87194 | 41132 ft | 574 kts | 64° |
| 2026-04-22 03:42 | 31.76695 | -120.78486 | 41132 ft | 574 kts | 64° |
| 2026-04-22 03:42 | 31.79667 | -120.69780 | 41133 ft | 574 kts | 64° |
| 2026-04-22 03:43 | 31.82639 | -120.61062 | 41135 ft | 574 kts | 64° |
| 2026-04-22 03:43 | 31.85618 | -120.52367 | 41137 ft | 574 kts | 64° |
| 2026-04-22 03:44 | 31.88561 | -120.43642 | 41138 ft | 574 kts | 65° |
| 2026-04-22 03:44 | 31.91499 | -120.34904 | 41138 ft | 573 kts | 65° |
| 2026-04-22 03:45 | 31.94755 | -120.26364 | 41137 ft | 569 kts | 56° |
| 2026-04-22 03:45 | 31.96963 | -120.22539 | 41138 ft | 561 kts | 45° |
| 2026-04-22 03:45 | 31.99589 | -120.19187 | 41142 ft | 555 kts | 39° |
| 2026-04-22 03:46 | 32.05121 | -120.12863 | 41140 ft | 553 kts | 38° |
| 2026-04-22 03:46 | 32.10465 | -120.06339 | 41141 ft | 553 kts | 40° |
| 2026-04-22 03:47 | 32.15691 | -119.99684 | 41143 ft | 553 kts | 40° |
| 2026-04-22 03:47 | 32.20877 | -119.93125 | 40702 ft | 539 kts | 40° |
| 2026-04-22 03:48 | 32.23437 | -119.89888 | 39931 ft | 541 kts | 40° |
| 2026-04-22 03:48 | 32.26026 | -119.86607 | 38987 ft | 547 kts | 40° |
| 2026-04-22 03:48 | 32.28624 | -119.83334 | 38322 ft | 545 kts | 40° |
| 2026-04-22 03:48 | 32.31176 | -119.80092 | 37643 ft | 544 kts | 40° |
| 2026-04-22 03:49 | 32.33750 | -119.76807 | 36938 ft | 543 kts | 40° |
| 2026-04-22 03:49 | 32.36312 | -119.73530 | 36220 ft | 542 kts | 40° |
| 2026-04-22 03:49 | 32.38872 | -119.70253 | 35537 ft | 540 kts | 40° |
| 2026-04-22 03:49 | 32.41422 | -119.66986 | 34835 ft | 538 kts | 40° |
| 2026-04-22 03:50 | 32.43098 | -119.64838 | 34423 ft | 536 kts | 41° |
| 2026-04-22 03:50 | 32.45622 | -119.61605 | 33845 ft | 532 kts | 41° |
| 2026-04-22 03:50 | 32.48124 | -119.58396 | 33276 ft | 528 kts | 41° |
| 2026-04-22 03:50 | 32.50603 | -119.55215 | 32718 ft | 523 kts | 41° |
| 2026-04-22 03:51 | 32.53061 | -119.52056 | 32163 ft | 519 kts | 41° |
| 2026-04-22 03:51 | 32.55499 | -119.48919 | 31612 ft | 515 kts | 41° |
| 2026-04-22 03:51 | 32.57915 | -119.45805 | 30990 ft | 512 kts | 41° |
| 2026-04-22 03:51 | 32.60322 | -119.42699 | 30390 ft | 509 kts | 41° |
| 2026-04-22 03:52 | 32.62707 | -119.39620 | 29842 ft | 505 kts | 41° |
| 2026-04-22 03:52 | 32.65079 | -119.36555 | 29266 ft | 502 kts | 41° |
| 2026-04-22 03:52 | 32.67432 | -119.33511 | 28681 ft | 499 kts | 41° |
| 2026-04-22 03:52 | 32.69769 | -119.30487 | 28097 ft | 496 kts | 41° |
| 2026-04-22 03:53 | 32.72102 | -119.27480 | 27519 ft | 492 kts | 41° |
| 2026-04-22 03:53 | 32.74425 | -119.24506 | 26948 ft | 489 kts | 41° |
| 2026-04-22 03:53 | 32.76732 | -119.21536 | 26379 ft | 486 kts | 42° |
| 2026-04-22 03:53 | 32.79013 | -119.18589 | 25814 ft | 483 kts | 42° |
| 2026-04-22 03:54 | 32.81274 | -119.15662 | 25252 ft | 480 kts | 42° |
| 2026-04-22 03:54 | 32.83529 | -119.12739 | 24689 ft | 477 kts | 43° |
| 2026-04-22 03:54 | 32.85757 | -119.09846 | 24130 ft | 474 kts | 43° |
| 2026-04-22 03:54 | 32.87976 | -119.06963 | 23573 ft | 470 kts | 43° |
| 2026-04-22 03:55 | 32.90174 | -119.04105 | 23021 ft | 467 kts | 43° |
| 2026-04-22 03:55 | 32.92358 | -119.01263 | 22469 ft | 463 kts | 43° |
| 2026-04-22 03:55 | 32.94525 | -118.98440 | 21922 ft | 460 kts | 43° |
| 2026-04-22 03:55 | 32.96672 | -118.95642 | 21378 ft | 456 kts | 43° |
| 2026-04-22 03:56 | 32.98819 | -118.92870 | 20836 ft | 452 kts | 43° |
| 2026-04-22 03:56 | 33.00934 | -118.90124 | 20301 ft | 449 kts | 44° |
| 2026-04-22 03:56 | 33.03002 | -118.87421 | 19775 ft | 445 kts | 44° |
| 2026-04-22 03:56 | 33.05078 | -118.84699 | 19248 ft | 441 kts | 44° |
| 2026-04-22 03:57 | 33.07135 | -118.82000 | 18722 ft | 438 kts | 44° |
| 2026-04-22 03:57 | 33.09198 | -118.79290 | 18198 ft | 434 kts | 44° |
| 2026-04-22 03:57 | 33.11223 | -118.76629 | 17685 ft | 431 kts | 44° |
| 2026-04-22 03:57 | 33.13201 | -118.74030 | 17183 ft | 427 kts | 44° |
| 2026-04-22 03:58 | 33.15189 | -118.71417 | 16676 ft | 423 kts | 44° |
| 2026-04-22 03:58 | 33.17162 | -118.68825 | 16310 ft | 416 kts | 44° |
| 2026-04-22 03:58 | 33.19070 | -118.66308 | 16183 ft | 403 kts | 45° |
| 2026-04-22 03:58 | 33.20898 | -118.63809 | 15936 ft | 395 kts | 46° |
| 2026-04-22 03:59 | 33.22663 | -118.61309 | 15815 ft | 394 kts | 47° |
| 2026-04-22 03:59 | 33.24428 | -118.58795 | 15701 ft | 396 kts | 47° |
| 2026-04-22 03:59 | 33.26201 | -118.56281 | 15595 ft | 394 kts | 46° |
| 2026-04-22 03:59 | 33.27973 | -118.53779 | 15490 ft | 395 kts | 46° |
| 2026-04-22 04:00 | 33.29750 | -118.51273 | 15385 ft | 394 kts | 46° |
| 2026-04-22 04:00 | 33.31495 | -118.48767 | 15281 ft | 392 kts | 49° |
| 2026-04-22 04:00 | 33.32880 | -118.45946 | 15169 ft | 396 kts | 65° |
| 2026-04-22 04:00 | 33.33594 | -118.42771 | 15071 ft | 397 kts | 81° |
| 2026-04-22 04:01 | 33.33812 | -118.39489 | 14965 ft | 395 kts | 89° |
| 2026-04-22 04:01 | 33.33845 | -118.36217 | 14868 ft | 392 kts | 92° |
| 2026-04-22 04:01 | 33.33724 | -118.32965 | 14761 ft | 392 kts | 96° |
| 2026-04-22 04:01 | 33.33497 | -118.29724 | 14653 ft | 390 kts | 97° |
| 2026-04-22 04:02 | 33.33269 | -118.26494 | 14548 ft | 390 kts | 97° |
| 2026-04-22 04:02 | 33.33067 | -118.23258 | 14444 ft | 389 kts | 96° |
| 2026-04-22 04:02 | 33.32878 | -118.20035 | 14341 ft | 389 kts | 96° |
| 2026-04-22 04:02 | 33.32690 | -118.16803 | 14240 ft | 388 kts | 96° |
| 2026-04-22 04:03 | 33.32653 | -118.13587 | 14131 ft | 388 kts | 86° |
| 2026-04-22 04:03 | 33.33308 | -118.10502 | 14037 ft | 389 kts | 67° |
| 2026-04-22 04:03 | 33.34624 | -118.07700 | 13910 ft | 384 kts | 56° |
| 2026-04-22 04:03 | 33.35862 | -118.05449 | 13616 ft | 380 kts | 54° |
| 2026-04-22 04:04 | 33.37632 | -118.02873 | 12910 ft | 382 kts | 40° |
| 2026-04-22 04:04 | 33.39857 | -118.01193 | 12440 ft | 374 kts | 19° |
| 2026-04-22 04:04 | 33.42324 | -118.00455 | 12249 ft | 360 kts | 3° |
| 2026-04-22 04:04 | 33.44790 | -118.00146 | 11858 ft | 354 kts | 0° |
| 2026-04-22 04:05 | 33.47215 | -117.99972 | 11505 ft | 343 kts | 355° |
| 2026-04-22 04:05 | 33.49530 | -118.00013 | 11331 ft | 321 kts | 352° |
| 2026-04-22 04:05 | 33.51664 | -118.00158 | 11055 ft | 304 kts | 350° |
| 2026-04-22 04:05 | 33.53769 | -118.00291 | 10630 ft | 295 kts | 351° |
| 2026-04-22 04:06 | 33.55797 | -118.00397 | 10173 ft | 289 kts | 352° |
| 2026-04-22 04:06 | 33.57786 | -118.00493 | 9687 ft | 284 kts | 352° |
| 2026-04-22 04:06 | 33.59742 | -118.00582 | 9194 ft | 280 kts | 353° |
| 2026-04-22 04:06 | 33.61677 | -118.00669 | 8690 ft | 276 kts | 354° |
| 2026-04-22 04:07 | 33.63592 | -118.00779 | 8181 ft | 276 kts | 351° |
| 2026-04-22 04:07 | 33.65484 | -118.01122 | 7922 ft | 271 kts | 346° |
| 2026-04-22 04:07 | 33.67315 | -118.01632 | 7784 ft | 269 kts | 342° |
| 2026-04-22 04:07 | 33.69109 | -118.02244 | 7700 ft | 265 kts | 340° |
| 2026-04-22 04:08 | 33.70844 | -118.02870 | 7595 ft | 256 kts | 340° |
| 2026-04-22 04:08 | 33.72522 | -118.03465 | 7472 ft | 247 kts | 340° |
| 2026-04-22 04:08 | 33.74151 | -118.04030 | 7298 ft | 241 kts | 340° |
| 2026-04-22 04:08 | 33.75722 | -118.04651 | 7062 ft | 236 kts | 335° |
| 2026-04-22 04:09 | 33.77207 | -118.05449 | 6830 ft | 232 kts | 332° |
| 2026-04-22 04:09 | 33.78666 | -118.06278 | 6576 ft | 231 kts | 332° |
| 2026-04-22 04:09 | 33.80125 | -118.07104 | 6270 ft | 232 kts | 332° |
| 2026-04-22 04:09 | 33.81580 | -118.07940 | 5970 ft | 232 kts | 331° |
| 2026-04-22 04:10 | 33.83033 | -118.08773 | 5695 ft | 231 kts | 332° |
| 2026-04-22 04:10 | 33.84472 | -118.09599 | 5458 ft | 227 kts | 332° |
| 2026-04-22 04:10 | 33.85880 | -118.10406 | 5258 ft | 220 kts | 332° |
| 2026-04-22 04:10 | 33.87254 | -118.11192 | 4935 ft | 218 kts | 330° |
| 2026-04-22 04:11 | 33.88545 | -118.12109 | 4553 ft | 218 kts | 324° |
| 2026-04-22 04:11 | 33.89786 | -118.13159 | 4218 ft | 218 kts | 322° |
| 2026-04-22 04:11 | 33.91021 | -118.14200 | 3902 ft | 217 kts | 322° |
| 2026-04-22 04:11 | 33.92236 | -118.15236 | 3724 ft | 210 kts | 321° |
| 2026-04-22 04:12 | 33.93442 | -118.16265 | 3652 ft | 213 kts | 319° |
| 2026-04-22 04:12 | 33.94400 | -118.17598 | 3534 ft | 212 kts | 300° |
| 2026-04-22 04:12 | 33.94968 | -118.19258 | 3333 ft | 218 kts | 284° |
| 2026-04-22 04:12 | 33.95210 | -118.21103 | 3040 ft | 224 kts | 276° |
| 2026-04-22 04:13 | 33.95271 | -118.22923 | 2841 ft | 211 kts | 267° |
| 2026-04-22 04:13 | 33.95131 | -118.24586 | 2692 ft | 188 kts | 263° |
| 2026-04-22 04:13 | 33.94991 | -118.26107 | 2387 ft | 183 kts | 263° |
| 2026-04-22 04:13 | 33.94833 | -118.27628 | 2134 ft | 180 kts | 261° |
| 2026-04-22 04:14 | 33.94669 | -118.29094 | 1966 ft | 173 kts | 263° |
| 2026-04-22 04:14 | 33.94540 | -118.30502 | 1833 ft | 166 kts | 263° |
| 2026-04-22 04:14 | 33.94401 | -118.31838 | 1631 ft | 153 kts | 263° |
| 2026-04-22 04:14 | 33.94255 | -118.33049 | 1407 ft | 139 kts | 263° |
| 2026-04-22 04:15 | 33.94145 | -118.34158 | 1088 ft | 134 kts | 264° |
| 2026-04-22 04:15 | 33.94037 | -118.35305 | 756 ft | 140 kts | 264° |
| 2026-04-22 04:15 | 33.93927 | -118.36405 | 494 ft | 125 kts | 263° |
| 2026-04-22 04:15 | 33.93826 | -118.37405 | 304 ft | 118 kts | 263° |
| 2026-04-22 04:16 | 33.93722 | -118.38421 | 184 ft | 122 kts | 263° |
| 2026-04-22 04:16 | 33.93558 | -118.40017 | 140 ft | 59 kts | 263° |
| 2026-04-22 04:16 | 33.93539 | -118.40372 | 140 ft | 31 kts | 273° |
| 2026-04-22 04:17 | 33.93568 | -118.40556 | 140 ft | 16 kts | 285° |
| 2026-04-22 04:17 | 33.93590 | -118.40656 | 140 ft | 7 kts | 283° |
| 2026-04-22 04:17 | 33.93594 | -118.40703 | 140 ft | 4 kts | 271° |
| 2026-04-22 04:17 | 33.93594 | -118.40725 | 140 ft | 8 kts | 268° |
| 2026-04-22 04:18 | 33.93591 | -118.40757 | 140 ft | 1 kts | 263° |
| 2026-04-22 04:18 | 33.93591 | -118.40758 | 140 ft | 0 kts | 263° |
| 2026-04-22 04:20 | 33.93590 | -118.40764 | 140 ft | 6 kts | 263° |
| 2026-04-22 04:20 | 33.93595 | -118.40857 | 140 ft | 12 kts | 303° |
| 2026-04-22 04:21 | 33.93663 | -118.40900 | 140 ft | 11 kts | 343° |
| 2026-04-22 04:21 | 33.93736 | -118.40915 | 140 ft | 10 kts | 353° |
| 2026-04-22 04:21 | 33.93776 | -118.40907 | 140 ft | 5 kts | 50° |
| 2026-04-22 04:21 | 33.93794 | -118.40814 | 140 ft | 15 kts | 83° |
| 2026-04-22 04:22 | 33.93806 | -118.40694 | 140 ft | 14 kts | 83° |
| 2026-04-22 04:22 | 33.93818 | -118.40582 | 140 ft | 13 kts | 83° |
| 2026-04-22 04:22 | 33.93828 | -118.40477 | 140 ft | 12 kts | 83° |
| 2026-04-22 04:22 | 33.93839 | -118.40376 | 140 ft | 12 kts | 83° |
| 2026-04-22 04:23 | 33.93848 | -118.40281 | 140 ft | 11 kts | 83° |
| 2026-04-22 04:23 | 33.93858 | -118.40193 | 140 ft | 10 kts | 83° |
| 2026-04-22 04:23 | 33.93866 | -118.40110 | 140 ft | 10 kts | 83° |
| 2026-04-22 04:23 | 33.93899 | -118.40060 | 140 ft | 6 kts | 1° |
| 2026-04-22 04:24 | 33.93943 | -118.40062 | 140 ft | 6 kts | 17° |
| 2026-04-22 04:24 | 33.93977 | -118.40032 | 140 ft | 7 kts | 33° |
| 2026-04-22 04:24 | 33.94011 | -118.40005 | 140 ft | 4 kts | 33° |
| 2026-04-22 04:24 | 33.94025 | -118.39994 | 140 ft | 2 kts | 32° |
| 2026-04-22 04:25 | 33.94027 | -118.39993 | 140 ft | 0 kts | 32° |